METAR* REPORTS - Stations within 60 miles

(*Meteorological Terminal Aviation Routine weather report)

 

KRDG - Reading, Pennsylvania, USA
Distance from station: SE 19mi, 31km
Updated: Sat, 25-Sep-2021 12:54pm EDT
Clear
Clear
 Wind from varies
Wind: varies 3 mph , 6 km/h
Temperature: 73°F , 23°C
Dew Point: 50°F , 10°C
Humidity: 44%
Barometer: 30.01 inHg , 1016.3 hPa
Clouds: Clear
Visibility: 10 miles , 16 km
2021/09/25 16:54 KRDG 251654Z VRB03KT 10SM CLR 23/10 A3001 RMK AO2 SLP167 T02330100
KLNS - Lancaster, Pennsylvania, USA
Distance from station: S 33mi, 53km
Updated: Sat, 25-Sep-2021 12:53pm EDT
Few Clouds
Few Clouds
 Wind from calm
Wind: Calm
Temperature: 73°F , 23°C
Dew Point: 52°F , 11°C
Humidity: 47%
Barometer: 30.03 inHg , 1016.9 hPa
Clouds: Few Clouds
Visibility: 10 miles , 16 km
Cloud details: Few Clouds 3500 ft
2021/09/25 16:53 KLNS 251653Z 00000KT 10SM FEW035 23/11 A3003 RMK AO2 SLP167 T02280106
 
KSEG - Selinsgrove, Pennsylvania, USA
Distance from station: WNW 39mi, 62km
Updated: Sat, 25-Sep-2021 12:53pm EDT
Clear
Clear
 Wind from calm
Wind: Calm
Temperature: 68°F , 20°C
Dew Point: 57°F , 14°C
Humidity: 69%
Barometer: 30.03 inHg , 1016.9 hPa
Clouds: Clear
Visibility: 10 miles , 16 km
2021/09/25 16:53 KSEG 251653Z AUTO 00000KT 10SM CLR 20/14 A3003 RMK AO2 SLP169 T02000139
KABE - Allentown, Pennsylvania, USA
Distance from station: E 39mi, 63km
Updated: Sat, 25-Sep-2021 12:51pm EDT
Clear
Clear
 Wind from calm
Wind: Calm
Temperature: 73°F , 23°C
Dew Point: 52°F , 11°C
Humidity: 47%
Barometer: 30.03 inHg , 1016.9 hPa
Clouds: Clear
Visibility: 10 miles , 16 km
2021/09/25 16:51 KABE 251651Z 00000KT 10SM CLR 23/11 A3003 RMK AO2 SLP167 T02280106
 
KMDT - Middletown, Pennsylvania, USA
Distance from station: SW 40mi, 65km
Updated: Sat, 25-Sep-2021 12:56pm EDT
Mostly Cloudy
Mostly Cloudy
 Wind from calm
Wind: Calm
Temperature: 70°F , 21°C
Dew Point: 54°F , 12°C
Humidity: 57%
Barometer: 30.02 inHg , 1016.6 hPa
Clouds: Mostly Cloudy
Visibility: 10 miles , 16 km
Cloud details: Mostly Cloudy 20000 ft
2021/09/25 16:56 KMDT 251656Z 00000KT 10SM BKN200 21/12 A3002 RMK AO2 SLP166 T02110117
KPTW - Pottstown, Pennsylvania, USA
Distance from station: SE 42mi, 67km
Updated: Sat, 25-Sep-2021 12:54pm EDT
Clear
Clear
 Wind from varies
Wind: varies 3 mph , 6 km/h
Temperature: 72°F , 22°C
Dew Point: 50°F , 10°C
Humidity: 47%
Barometer: 30.04 inHg , 1017.3 hPa
Clouds: Clear
Visibility: 10 miles , 16 km
2021/09/25 16:54 KPTW 251654Z AUTO VRB03KT 10SM CLR 22/10 A3004 RMK AO2 SLP169 T02170100
 
KCXY - Harrisburg, Pennsylvania, USA
Distance from station: SW 43mi, 69km
Updated: Sat, 25-Sep-2021 12:56pm EDT
Clear
Clear
 Wind from NE
Wind: NE 5 mph , 7 km/h
Temperature: 73°F , 23°C
Dew Point: 52°F , 11°C
Humidity: 47%
Barometer: 30.02 inHg , 1016.6 hPa
Clouds: Clear
Visibility: 10 miles , 16 km
2021/09/25 16:56 KCXY 251656Z 05004KT 10SM CLR 23/11 A3002 RMK AO2 SLP167 T02330111
KUKT - Quakertown Arp, Pennsylvania, USA
Distance from station: ESE 44mi, 70km
Updated: Sat, 25-Sep-2021 1:15pm EDT
Clear
Clear
 Wind from SSW
Wind: SSW 3 mph , 6 km/h
Temperature: 73°F , 23°C
Dew Point: 50°F , 10°C
Humidity: 44%
Barometer: 30.02 inHg , 1016.6 hPa
Clouds: Clear
Visibility: 10 miles , 16 km
2021/09/25 17:15 KUKT 251715Z AUTO 20003KT 10SM CLR 23/10 A3002 RMK A01
 
KMQS - Coatesville, Pennsylvania, USA
Distance from station: SSE 45mi, 72km
Updated: Sat, 25-Sep-2021 1:15pm EDT
Clear
Clear
 Wind from calm
Wind: Calm
Temperature: 72°F , 22°C
Dew Point: 50°F , 10°C
Humidity: 47%
Barometer: 30.04 inHg , 1017.3 hPa
Clouds: Clear
Visibility: 10 miles , 16 km
2021/09/25 17:15 KMQS 251715Z AUTO 00000KT 10SM CLR 22/10 A3004 RMK AO2
KMPO - Mt. Pocono, Pennsylvania, USA
Distance from station: NE 57mi, 92km
Updated: Sat, 25-Sep-2021 12:53pm EDT
Light rain, Few clouds
Light rain, Few clouds
 Wind from varies
Wind: varies 5 mph , 7 km/h
Temperature: 66°F , 19°C
Dew Point: 54°F , 12°C
Humidity: 64%
Barometer: 30.05 inHg , 1017.6 hPa
Summary: Light Rain
Clouds: Few Clouds
Visibility: 10 miles , 16 km
Cloud details: Few Clouds 3900 ft
2021/09/25 16:53 KMPO 251653Z AUTO VRB04KT 10SM -RA FEW039 19/12 A3005 RMK AO2 SLP174 P0000 T01940117
 
KAVP - Avoca/Wilkes B., Pennsylvania, USA
Distance from station: NNE 58mi, 93km
Updated: Sat, 25-Sep-2021 12:54pm EDT
Clear
Clear
 Wind from calm
Wind: Calm
Temperature: 72°F , 22°C
Dew Point: 50°F , 10°C
Humidity: 47%
Barometer: 30.03 inHg , 1016.9 hPa
Clouds: Clear
Visibility: 10 miles , 16 km
2021/09/25 16:54 KAVP 251654Z 00000KT 10SM CLR 22/10 A3003 RMK AO2 SLP166 T02170100
KTHV - York, Pennsylvania, USA
Distance from station: SW 59mi, 94km
Updated: Sat, 25-Sep-2021 12:53pm EDT
Few Clouds
Few Clouds
 
Temperature: 72°F , 22°C
Dew Point: 54°F , 12°C
Humidity: 53%
Barometer: 30.03 inHg , 1016.9 hPa
Clouds: Few Clouds
Visibility: 10 miles , 16 km
Cloud details: Few Clouds 4800 ft
2021/09/25 16:53 KTHV 251653Z AUTO 10SM FEW048 22/12 A3003 RMK AO2 SLP169 T02220117
 
KDYL - Doylestown, Pennsylvania, USA
Distance from station: ESE 59mi, 95km
Updated: Sat, 25-Sep-2021 12:54pm EDT
Clear
Clear
 Wind from SW
Wind: SW 6 mph , 9 km/h
Temperature: 73°F , 23°C
Dew Point: 52°F , 11°C
Humidity: 47%
Barometer: 30.02 inHg , 1016.6 hPa
Clouds: Clear
Visibility: 10 miles , 16 km
2021/09/25 16:54 KDYL 251654Z AUTO 23005KT 10SM CLR 23/11 A3002 RMK AO2 SLP163 T02330106
KIPT - Williamsport, Pennsylvania, USA
Distance from station: NW 60mi, 96km
Updated: Sat, 25-Sep-2021 12:54pm EDT
Clear
Clear
 Wind from calm
Wind: Calm
Temperature: 64°F , 18°C
Dew Point: 52°F , 11°C
Humidity: 64%
Barometer: 30.01 inHg , 1016.3 hPa
Clouds: Clear
Visibility: 10 miles , 16 km
2021/09/25 16:54 KIPT 251654Z 00000KT 10SM CLR 18/11 A3001 RMK AO2 SLP163 T01830111